Time;durP1;ratioP1;P1;durP2;ratioP2;P2;SDS_P1;SDS_P2;PMS_P1;PMS_P2;Temp;Humidity;BMP_temperature;BMP_pressure;BME280_temperature;BME280_humidity;BME280_pressure;Samples;Min_cycle;Max_cycle;Signal;HPM_P1;HPM_P2
2022/01/12 00:01:28;;;;;;;;;;;;;;;0.39;46.42;101062.69;5312755;27;31097;-85
2022/01/12 00:03:57;;;;;;;;;;;;;;;0.44;46.39;101068.03;5315345;27;34757;-86
2022/01/12 00:06:25;;;;;;;;;;;;;;;0.94;44.72;101065.34;5315833;27;34783;-85
2022/01/12 00:08:54;;;;;;;;;;;;;;;0.60;45.47;101068.84;5320584;27;33799;-85
2022/01/12 00:11:22;;;;;;;;;;;;;;;0.75;45.19;101060.16;5315774;27;34087;-86
2022/01/12 00:13:53;;;;;;;;;;;;;;;0.66;45.86;101059.72;5314962;27;34233;-85
2022/01/12 00:16:21;;;;;;;;;;;;;;;0.81;45.35;101069.00;5314934;27;34264;-86
2022/01/12 00:18:50;;;;;;;;;;;;;;;0.44;45.92;101065.47;5315469;27;33670;-86
2022/01/12 00:21:18;;;;;;;;;;;;;;;0.46;46.40;101061.28;5321817;27;33356;-85
2022/01/12 00:23:46;;;;;;;;;;;;;;;0.51;45.67;101060.72;5315666;27;34383;-87
2022/01/12 00:26:36;;;;;;;;;;;;;;;0.50;45.52;101063.19;5313377;27;34139;-86
2022/01/12 00:34:40;;;;;;;;;;;;;;;-0.20;47.61;101073.25;5315451;27;33921;-86
2022/01/12 00:37:09;;;;;;;;;;;;;;;-0.38;48.19;101074.03;5315113;27;34096;-86
2022/01/12 00:39:37;;;;;;;;;;;;;;;-0.39;48.64;101086.69;5322448;27;34883;-86
2022/01/12 00:42:11;;;;;;;;;;;;;;;-0.36;48.64;101091.94;5315239;27;33831;-85
2022/01/12 00:44:45;;;;;;;;;;;;;;;-0.83;49.99;101096.22;5314920;27;34689;-86
2022/01/12 00:47:13;;;;;;;;;;;;;;;-0.81;50.12;101102.28;5313977;27;33817;-86
2022/01/12 00:49:42;;;;;;;;;;;;;;;-0.91;50.34;101092.41;5314334;27;33942;-85
2022/01/12 00:52:11;;;;;;;;;;;;;;;-1.10;50.85;101100.66;5318646;27;33937;-86
2022/01/12 00:54:39;;;;;;;;;;;;;;;-0.99;50.34;101098.72;5316027;27;33879;-86
2022/01/12 00:57:08;;;;;;;;;;;;;;;-0.98;50.76;101103.03;5316033;27;33983;-85
2022/01/12 00:59:37;;;;;;;;;;;;;;;-0.73;50.21;101097.63;5316229;27;34091;-86
2022/01/12 01:02:07;;;;;;;;;;;;;;;-0.72;49.84;101102.81;5315532;27;33233;-86
2022/01/12 01:04:36;;;;;;;;;;;;;;;-0.79;50.27;101099.84;5322982;27;36348;-86
2022/01/12 01:07:04;;;;;;;;;;;;;;;-0.77;50.21;101100.81;5315937;27;33848;-86
2022/01/12 01:09:35;;;;;;;;;;;;;;;-0.55;49.91;101100.31;5316015;27;34062;-86
2022/01/12 01:12:04;;;;;;;;;;;;;;;-0.68;50.26;101096.19;5315340;27;33462;-86
2022/01/12 01:14:45;;;;;;;;;;;;;;;-0.68;50.38;101094.53;5314643;27;34104;-85
2022/01/12 01:25:33;;;;;;;;;;;;;;;-0.93;50.88;101097.41;5314803;27;33814;-86
2022/01/12 01:28:03;;;;;;;;;;;;;;;-0.98;51.29;101103.03;5314485;27;34354;-86
2022/01/12 01:30:32;;;;;;;;;;;;;;;-0.91;51.30;101095.81;5312886;27;31965;-86
2022/01/12 01:33:06;;;;;;;;;;;;;;;-0.86;51.12;101104.59;5314478;27;32461;-86
2022/01/12 01:35:36;;;;;;;;;;;;;;;-1.04;51.31;101102.69;5319314;27;32504;-86
2022/01/12 01:38:05;;;;;;;;;;;;;;;-0.99;51.32;101099.62;5321156;27;34818;-86
2022/01/12 01:40:34;;;;;;;;;;;;;;;-1.21;52.20;101104.28;5314648;27;34739;-86
2022/01/12 01:43:15;;;;;;;;;;;;;;;-1.02;51.89;101106.19;5312763;27;32965;-85
2022/01/12 01:54:04;;;;;;;;;;;;;;;-1.16;52.39;101113.94;5314898;27;32779;-86
2022/01/12 01:56:32;;;;;;;;;;;;;;;-1.52;53.28;101122.91;5321191;27;34436;-86
2022/01/12 01:59:01;;;;;;;;;;;;;;;-1.33;52.73;101124.81;5314848;27;34945;-86
2022/01/12 02:01:34;;;;;;;;;;;;;;;-0.90;51.96;101122.16;5312635;27;32627;-87
2022/01/12 02:04:05;;;;;;;;;;;;;;;-1.33;52.86;101123.16;5314499;27;33631;-85
2022/01/12 02:06:34;;;;;;;;;;;;;;;-1.67;53.89;101121.97;5315331;27;33295;-86
2022/01/12 02:09:03;;;;;;;;;;;;;;;-1.61;54.01;101122.34;5321663;27;35146;-85
2022/01/12 02:11:32;;;;;;;;;;;;;;;-1.68;54.42;101115.16;5312897;27;33981;-86
2022/01/12 02:14:01;;;;;;;;;;;;;;;-1.83;54.87;101121.09;5294443;27;34713;-86
2022/01/12 02:16:39;;;;;;;;;;;;;;;-1.69;54.50;101119.38;5313954;27;33665;-85
2022/01/12 02:19:19;;;;;;;;;;;;;;;-1.66;54.34;101123.75;5314192;27;34881;-85
2022/01/12 02:36:07;;;;;;;;;;;;;;;-1.88;55.81;101122.47;5267582;27;33124;-86
2022/01/12 02:41:23;;;;;;;;;;;;;;;-2.00;56.55;101117.53;5268195;27;34547;-85
2022/01/12 02:54:58;;;;;;;;;;;;;;;-2.37;57.89;101120.38;5277741;27;34107;-86
2022/01/12 02:57:27;;;;;;;;;;;;;;;-2.36;57.93;101124.66;5292574;27;33016;-86
2022/01/12 03:00:06;;;;;;;;;;;;;;;-2.19;57.13;101130.78;5272606;27;35642;-85
2022/01/12 03:02:38;;;;;;;;;;;;;;;-2.21;57.30;101139.09;5292705;27;34330;-85
2022/01/12 03:08:03;;;;;;;;;;;;;;;-2.37;57.74;101137.25;5268921;27;31978;-85
2022/01/12 03:10:33;;;;;;;;;;;;;;;-2.39;57.67;101131.25;5297268;27;34263;-85
2022/01/12 03:13:02;;;;;;;;;;;;;;;-2.44;57.88;101137.66;5272424;27;35606;-85
2022/01/12 03:15:30;;;;;;;;;;;;;;;-2.36;57.69;101134.84;5292243;27;34720;-85
2022/01/12 03:17:59;;;;;;;;;;;;;;;-2.35;57.56;101138.25;5272472;27;34600;-85
2022/01/12 03:20:28;;;;;;;;;;;;;;;-2.31;57.40;101136.78;5292204;27;33677;-85
2022/01/12 03:22:57;;;;;;;;;;;;;;;-2.24;57.58;101136.38;5297263;27;34203;-85
2022/01/12 03:25:26;;;;;;;;;;;;;;;-2.37;57.97;101142.34;5289487;27;236598;-86
2022/01/12 03:28:00;;;;;;;;;;;;;;;-2.56;58.88;101140.34;5306462;27;33981;-85
2022/01/12 03:30:36;;;;;;;;;;;;;;;-2.79;59.78;101141.44;5291721;27;34899;-85
2022/01/12 03:33:11;;;;;;;;;;;;;;;-2.67;59.75;101149.81;5291731;27;34315;-85
2022/01/12 03:35:50;;;;;;;;;;;;;;;-2.78;59.87;101148.25;5291462;27;33721;-85
2022/01/12 03:38:21;;;;;;;;;;;;;;;-2.71;59.45;101147.84;5292924;27;33406;-85
2022/01/12 03:40:54;;;;;;;;;;;;;;;-2.51;58.83;101148.22;5298645;27;34082;-84
2022/01/12 03:43:24;;;;;;;;;;;;;;;-2.49;58.96;101142.50;5292175;27;34009;-84
2022/01/12 03:45:52;;;;;;;;;;;;;;;-2.74;59.92;101145.13;5292030;27;34409;-84
2022/01/12 03:48:21;;;;;;;;;;;;;;;-2.91;60.38;101138.09;5291916;27;34231;-84
2022/01/12 03:50:50;;;;;;;;;;;;;;;-2.82;60.11;101138.69;5291997;27;33586;-84
2022/01/12 03:53:18;;;;;;;;;;;;;;;-2.63;59.66;101136.53;5298793;27;34064;-84
2022/01/12 03:55:46;;;;;;;;;;;;;;;-2.83;60.16;101139.47;5272364;27;32549;-84
2022/01/12 03:58:15;;;;;;;;;;;;;;;-2.63;60.22;101146.69;5293236;27;33826;-85
2022/01/12 04:00:45;;;;;;;;;;;;;;;-2.64;60.40;101144.06;5291308;27;34268;-85
2022/01/12 04:03:15;;;;;;;;;;;;;;;-2.66;59.75;101146.53;5272109;27;36564;-84
2022/01/12 04:08:26;;;;;;;;;;;;;;;-2.46;59.54;101149.44;5296167;27;34329;-84
2022/01/12 04:10:55;;;;;;;;;;;;;;;-2.60;60.33;101156.19;5291688;27;34432;-84
2022/01/12 04:13:25;;;;;;;;;;;;;;;-2.70;60.45;101153.84;5291987;27;33892;-84
2022/01/12 04:15:56;;;;;;;;;;;;;;;-2.55;60.29;101148.84;5291875;27;33510;-84
2022/01/12 04:18:25;;;;;;;;;;;;;;;-2.57;60.24;101141.13;5291765;27;32789;-84
2022/01/12 04:20:53;;;;;;;;;;;;;;;-2.70;60.82;101142.00;5315549;27;33963;-84
2022/01/12 04:23:22;;;;;;;;;;;;;;;-2.64;60.54;101142.37;5290427;27;34286;-84
2022/01/12 04:25:56;;;;;;;;;;;;;;;-2.76;60.51;101144.16;5272252;27;34399;-84
2022/01/12 04:28:25;;;;;;;;;;;;;;;-2.70;60.31;101151.31;5313742;27;33908;-84
2022/01/12 04:30:54;;;;;;;;;;;;;;;-2.72;60.16;101150.31;5313502;27;34338;-84
2022/01/12 04:33:24;;;;;;;;;;;;;;;-2.87;60.61;101147.69;5320199;27;33981;-84
2022/01/12 04:35:55;;;;;;;;;;;;;;;-3.03;61.65;101148.34;5315411;27;35791;-84
2022/01/12 04:38:25;;;;;;;;;;;;;;;-3.04;62.04;101150.00;5313437;27;34220;-85
2022/01/12 04:40:54;;;;;;;;;;;;;;;-3.15;62.19;101152.63;5313918;27;34947;-84
2022/01/12 04:43:23;;;;;;;;;;;;;;;-3.35;63.04;101157.28;5313811;27;34159;-84
2022/01/12 04:46:09;;;;;;;;;;;;;;;-3.38;63.22;101148.56;5314196;27;34147;-84
2022/01/12 04:48:52;;;;;;;;;;;;;;;-3.34;62.50;101153.06;5321105;27;33315;-84
2022/01/12 04:51:22;;;;;;;;;;;;;;;-3.19;61.84;101160.81;5321802;27;33593;-84
2022/01/12 04:53:50;;;;;;;;;;;;;;;-3.16;61.46;101159.37;5295006;27;32000;-83
2022/01/12 04:56:19;;;;;;;;;;;;;;;-3.23;61.65;101164.81;5313352;27;34419;-84
2022/01/12 04:58:48;;;;;;;;;;;;;;;-3.31;61.60;101160.88;5314666;27;33547;-84
2022/01/12 05:01:24;;;;;;;;;;;;;;;-3.18;60.95;101162.59;5294514;27;34510;-86
2022/01/12 05:15:16;;;;;;;;;;;;;;;-2.76;60.51;101177.16;4501718;31;32718;-86
2022/01/12 05:17:44;;;;;;;;;;;;;;;-3.48;62.69;101178.44;4483748;31;32904;-85
2022/01/12 05:20:13;;;;;;;;;;;;;;;-3.39;62.56;101182.34;4501092;31;34189;-83
2022/01/12 05:22:41;;;;;;;;;;;;;;;-3.50;62.55;101179.97;4506345;31;33973;-83
2022/01/12 05:25:10;;;;;;;;;;;;;;;-3.75;62.89;101186.69;4497554;31;33014;-83
2022/01/12 05:27:41;;;;;;;;;;;;;;;-3.50;62.29;101184.19;4491411;31;33566;-83
2022/01/12 05:30:10;;;;;;;;;;;;;;;-3.10;60.40;101189.34;4476666;31;34820;-82
2022/01/12 05:32:39;;;;;;;;;;;;;;;-3.28;60.88;101191.56;4503739;31;34368;-83
2022/01/12 05:35:09;;;;;;;;;;;;;;;-3.22;60.65;101191.94;4506767;31;33287;-83
2022/01/12 05:37:37;;;;;;;;;;;;;;;-3.28;60.78;101187.38;4498126;31;33790;-82
2022/01/12 05:40:07;;;;;;;;;;;;;;;-3.20;60.60;101182.78;4502562;31;33914;-83
2022/01/12 05:42:36;;;;;;;;;;;;;;;-3.11;60.55;101185.94;4487155;31;33296;-82
2022/01/12 05:45:08;;;;;;;;;;;;;;;-3.31;61.24;101179.56;4489250;31;33045;-83
2022/01/12 05:49:33;;;;;;;;;;;;;;;-3.11;60.77;101185.06;4485801;32;34058;-83
2022/01/12 05:50:28;;;;;;;;;;;;;;;-3.35;61.52;101181.78;4496318;32;34079;-83
2022/01/12 05:52:57;;;;;;;;;;;;;;;-3.05;60.77;101182.91;4498368;31;34088;-84
2022/01/12 05:55:29;;;;;;;;;;;;;;;-3.05;60.87;101193.06;4483899;31;34017;-84
2022/01/12 05:57:58;;;;;;;;;;;;;;;-3.29;61.35;101193.19;4489751;32;34629;-83
2022/01/12 06:00:28;;;;;;;;;;;;;;;-3.15;60.95;101198.31;4485971;32;33871;-83
2022/01/12 06:02:57;;;;;;;;;;;;;;;-3.38;61.49;101199.31;4499233;31;33196;-83
2022/01/12 06:05:28;;;;;;;;;;;;;;;-3.14;60.89;101198.44;4493742;31;32745;-84
2022/01/12 06:07:57;;;;;;;;;;;;;;;-3.17;60.98;101202.41;4490636;31;35220;-84
2022/01/12 06:10:25;;;;;;;;;;;;;;;-3.07;60.83;101202.22;4489783;31;34140;-83
2022/01/12 06:12:54;;;;;;;;;;;;;;;-3.11;60.58;101208.78;4481267;31;32060;-84
2022/01/12 06:15:24;;;;;;;;;;;;;;;-3.22;61.03;101215.66;4488733;31;33017;-84
2022/01/12 06:17:54;;;;;;;;;;;;;;;-3.38;61.27;101224.69;4489191;32;34115;-84
2022/01/12 06:20:23;;;;;;;;;;;;;;;-3.20;61.38;101220.84;4488090;32;34631;-85
2022/01/12 06:22:52;;;;;;;;;;;;;;;-3.06;60.88;101225.19;4483205;31;34588;-84
2022/01/12 06:25:20;;;;;;;;;;;;;;;-3.30;61.75;101231.19;4484389;31;33861;-84
2022/01/12 06:27:55;;;;;;;;;;;;;;;-3.25;61.19;101232.38;4467046;31;36462;-84
2022/01/12 06:33:12;;;;;;;;;;;;;;;-3.16;61.30;101227.03;4479877;31;34085;-83
2022/01/12 06:35:41;;;;;;;;;;;;;;;-3.13;61.00;101240.78;4480907;31;33963;-83
2022/01/12 06:38:09;;;;;;;;;;;;;;;-3.11;60.80;101240.91;4492881;31;33750;-83
2022/01/12 06:40:38;;;;;;;;;;;;;;;-2.95;60.29;101237.72;4489181;31;36409;-83
2022/01/12 06:43:06;;;;;;;;;;;;;;;-3.02;60.53;101234.78;4484874;31;34487;-83
2022/01/12 06:45:35;;;;;;;;;;;;;;;-3.07;61.00;101232.69;4484149;31;33258;-83
2022/01/12 06:48:03;;;;;;;;;;;;;;;-3.10;61.27;101243.53;4493534;31;34684;-84
2022/01/12 06:50:33;;;;;;;;;;;;;;;-3.21;61.22;101247.03;4491103;31;33702;-83
2022/01/12 06:53:02;;;;;;;;;;;;;;;-2.91;60.78;101247.28;4483723;31;34029;-83
2022/01/12 06:55:30;;;;;;;;;;;;;;;-2.90;60.25;101249.94;4495541;31;31497;-83
2022/01/12 06:57:59;;;;;;;;;;;;;;;-2.96;60.59;101253.72;4483603;31;34947;-83
2022/01/12 07:00:27;;;;;;;;;;;;;;;-2.87;60.36;101250.13;4480815;31;34125;-83
2022/01/12 07:02:56;;;;;;;;;;;;;;;-3.01;60.55;101250.87;4497424;31;33718;-83
2022/01/12 07:05:26;;;;;;;;;;;;;;;-3.14;60.91;101254.28;4472611;32;34494;-84
2022/01/12 07:07:55;;;;;;;;;;;;;;;-3.04;60.58;101254.09;4482121;31;34737;-83
2022/01/12 07:10:25;;;;;;;;;;;;;;;-2.94;60.12;101260.66;4480837;31;34390;-84
2022/01/12 07:12:54;;;;;;;;;;;;;;;-3.11;60.71;101261.22;4481190;31;34368;-83
2022/01/12 07:15:23;;;;;;;;;;;;;;;-3.11;61.30;101258.69;4485053;32;31906;-83
2022/01/12 07:17:51;;;;;;;;;;;;;;;-2.99;60.69;101268.78;4479269;32;34728;-83
2022/01/12 07:20:19;;;;;;;;;;;;;;;-2.98;60.68;101270.53;4477892;32;34281;-83
2022/01/12 07:22:48;;;;;;;;;;;;;;;-3.02;60.78;101277.03;4478760;32;33963;-82
2022/01/12 07:25:18;;;;;;;;;;;;;;;-3.21;61.50;101282.56;4478977;32;34025;-83
2022/01/12 07:27:46;;;;;;;;;;;;;;;-3.07;61.50;101292.00;4491749;31;33834;-83
2022/01/12 07:30:15;;;;;;;;;;;;;;;-2.98;61.15;101295.91;4486831;31;34895;-83
2022/01/12 07:32:45;;;;;;;;;;;;;;;-3.30;62.38;101299.69;4479467;32;34743;-83
2022/01/12 07:35:14;;;;;;;;;;;;;;;-2.67;60.68;101296.28;4478456;31;33697;-83
2022/01/12 07:37:42;;;;;;;;;;;;;;;-2.66;60.52;101298.94;4488757;31;34842;-83
2022/01/12 07:40:11;;;;;;;;;;;;;;;-2.92;61.29;101302.28;4486525;31;34753;-83
2022/01/12 07:42:41;;;;;;;;;;;;;;;-2.76;60.72;101301.63;4490979;31;33245;-83
2022/01/12 07:45:10;;;;;;;;;;;;;;;-2.74;60.35;101300.06;4491292;31;33380;-84
2022/01/12 07:47:38;;;;;;;;;;;;;;;-2.67;60.65;101296.28;4487855;31;33357;-83
2022/01/12 07:50:07;;;;;;;;;;;;;;;-2.29;59.50;101300.44;4484516;31;34196;-83
2022/01/12 07:52:36;;;;;;;;;;;;;;;-2.62;60.39;101305.97;4485323;31;33256;-83
2022/01/12 07:55:05;;;;;;;;;;;;;;;-2.44;60.02;101313.00;4494208;31;33329;-83
2022/01/12 07:57:34;;;;;;;;;;;;;;;-2.71;60.36;101322.25;4489805;31;34032;-82
2022/01/12 08:00:04;;;;;;;;;;;;;;;-2.56;60.14;101318.22;4494273;31;34186;-83
2022/01/12 08:02:38;;;;;;;;;;;;;;;-2.48;60.45;101322.13;4489503;31;33476;-83
2022/01/12 08:05:07;;;;;;;;;;;;;;;-2.68;61.16;101317.38;4492227;31;33302;-83
2022/01/12 08:07:42;;;;;;;;;;;;;;;-2.24;59.97;101325.37;4484532;31;33925;-83
2022/01/12 08:10:12;;;;;;;;;;;;;;;-2.01;59.24;101325.94;4472798;31;34538;-83
2022/01/12 08:12:40;;;;;;;;;;;;;;;-1.60;57.99;101325.13;4479805;31;33751;-83
2022/01/12 08:15:10;;;;;;;;;;;;;;;-1.75;58.15;101325.06;4479908;31;33203;-85
2022/01/12 08:17:38;;;;;;;;;;;;;;;-1.89;58.69;101326.72;4487897;31;34163;-84
2022/01/12 08:20:11;;;;;;;;;;;;;;;-1.65;57.90;101324.84;4492015;31;34479;-83
2022/01/12 08:22:40;;;;;;;;;;;;;;;-1.88;58.61;101325.09;4495221;31;33798;-83
2022/01/12 08:25:09;;;;;;;;;;;;;;;-1.61;57.31;101318.28;4478009;31;32603;-84
2022/01/12 08:27:38;;;;;;;;;;;;;;;-1.49;57.40;101328.34;4475748;31;34525;-84
2022/01/12 08:30:15;;;;;;;;;;;;;;;-1.64;57.28;101325.72;4491005;31;33928;-85
2022/01/12 08:32:45;;;;;;;;;;;;;;;-1.68;57.30;101333.97;4482560;31;33598;-85
2022/01/12 08:35:14;;;;;;;;;;;;;;;-1.69;57.74;101343.25;4484713;31;33497;-84
2022/01/12 08:37:43;;;;;;;;;;;;;;;-1.48;57.10;101351.34;4480906;31;34725;-84
2022/01/12 08:40:12;;;;;;;;;;;;;;;-1.65;57.77;101355.37;4479095;32;34055;-84
2022/01/12 08:42:41;;;;;;;;;;;;;;;-1.69;57.81;101348.34;4482796;31;33620;-84
2022/01/12 08:45:10;;;;;;;;;;;;;;;-1.68;57.30;101357.72;4494570;31;33608;-85
2022/01/12 08:47:38;;;;;;;;;;;;;;;-1.59;57.49;101355.78;4481671;31;33473;-84
2022/01/12 08:50:09;;;;;;;;;;;;;;;-1.60;57.90;101346.34;4484359;31;33771;-85
2022/01/12 08:52:37;;;;;;;;;;;;;;;-1.41;57.49;101345.84;4459005;32;34116;-83
2022/01/12 08:55:06;;;;;;;;;;;;;;;-1.36;56.93;101344.44;4473156;31;32784;-83
2022/01/12 08:57:35;;;;;;;;;;;;;;;-1.47;57.35;101345.47;4473878;31;33458;-84
2022/01/12 09:00:05;;;;;;;;;;;;;;;-1.34;57.31;101350.53;4465834;31;34217;-84
2022/01/12 09:02:34;;;;;;;;;;;;;;;-1.36;57.52;101354.63;4480456;31;33480;-83
2022/01/12 09:05:03;;;;;;;;;;;;;;;-1.36;57.24;101343.56;4476230;31;34005;-85
2022/01/12 09:07:33;;;;;;;;;;;;;;;-1.21;57.34;101341.06;4473723;32;33761;-85
2022/01/12 09:10:02;;;;;;;;;;;;;;;-1.16;57.10;101348.22;4477561;31;34893;-85
2022/01/12 09:12:30;;;;;;;;;;;;;;;-1.02;57.39;101336.31;4476144;31;32879;-85
2022/01/12 09:14:58;;;;;;;;;;;;;;;-0.88;56.71;101338.00;4480975;31;33874;-85
2022/01/12 09:17:27;;;;;;;;;;;;;;;-0.74;56.18;101332.84;4474943;31;34092;-84
2022/01/12 09:19:55;;;;;;;;;;;;;;;-0.77;56.11;101335.25;4483337;31;34778;-85
2022/01/12 09:22:24;;;;;;;;;;;;;;;-0.69;56.40;101337.44;4463972;31;31854;-85
2022/01/12 09:24:54;;;;;;;;;;;;;;;-0.80;56.39;101341.00;4476422;31;34103;-84
2022/01/12 09:27:23;;;;;;;;;;;;;;;-0.59;56.14;101340.50;4486160;31;34106;-85
2022/01/12 09:29:51;;;;;;;;;;;;;;;-0.38;55.56;101341.75;4475740;31;34104;-85
2022/01/12 09:32:20;;;;;;;;;;;;;;;-0.26;54.56;101339.91;4472936;31;33767;-85
2022/01/12 09:34:48;;;;;;;;;;;;;;;-0.36;54.71;101336.72;4473769;32;35624;-85
2022/01/12 09:37:16;;;;;;;;;;;;;;;-0.31;54.85;101340.44;4473914;31;34773;-85
2022/01/12 09:39:45;;;;;;;;;;;;;;;-0.37;54.75;101342.63;4474750;31;32539;-85
2022/01/12 09:42:16;;;;;;;;;;;;;;;-0.35;54.65;101331.72;4466204;31;34518;-85
2022/01/12 09:44:46;;;;;;;;;;;;;;;-0.36;55.06;101337.63;4474233;31;33278;-85
2022/01/12 09:47:15;;;;;;;;;;;;;;;0.06;54.37;101333.19;4473765;31;33540;-84
2022/01/12 09:49:44;;;;;;;;;;;;;;;0.36;53.56;101349.31;4474789;31;34436;-84
2022/01/12 09:52:13;;;;;;;;;;;;;;;0.03;54.12;101348.31;4474548;31;34069;-85
2022/01/12 09:54:42;;;;;;;;;;;;;;;0.18;53.86;101344.06;4480299;31;33359;-85
2022/01/12 09:57:10;;;;;;;;;;;;;;;0.21;53.54;101344.22;4466248;32;35043;-85
2022/01/12 09:59:40;;;;;;;;;;;;;;;0.13;53.31;101345.50;4464620;31;34111;-85
2022/01/12 10:02:14;;;;;;;;;;;;;;;0.10;53.73;101349.56;4480400;31;33952;-85
2022/01/12 10:04:43;;;;;;;;;;;;;;;0.18;53.70;101350.84;4477006;31;33778;-85
2022/01/12 10:07:12;;;;;;;;;;;;;;;0.15;53.27;101351.56;4488234;31;34108;-85
2022/01/12 10:09:43;;;;;;;;;;;;;;;-0.12;54.31;101355.09;4479298;31;35018;-84
2022/01/12 10:12:15;;;;;;;;;;;;;;;0.14;53.96;101346.34;4479567;31;34610;-85
2022/01/12 10:14:46;;;;;;;;;;;;;;;0.22;53.36;101345.13;4477577;31;32759;-85
2022/01/12 10:17:15;;;;;;;;;;;;;;;0.06;53.57;101337.41;4476363;31;33918;-85
2022/01/12 10:19:43;;;;;;;;;;;;;;;-0.01;54.56;101342.16;4475066;31;34465;-82
2022/01/12 10:22:22;;;;;;;;;;;;;;;0.42;53.46;101347.06;4481306;31;34358;-83
2022/01/12 10:24:51;;;;;;;;;;;;;;;0.61;52.90;101346.41;4475615;31;34037;-82
2022/01/12 10:27:20;;;;;;;;;;;;;;;0.53;51.24;101341.66;4460481;31;34881;-82
2022/01/12 10:29:56;;;;;;;;;;;;;;;0.44;51.70;101346.31;4475399;31;34118;-83
2022/01/12 10:32:24;;;;;;;;;;;;;;;0.62;52.12;101342.16;4476687;31;34376;-82
2022/01/12 10:34:53;;;;;;;;;;;;;;;0.75;51.94;101343.69;4485161;31;32106;-82
2022/01/12 10:37:26;;;;;;;;;;;;;;;0.33;52.88;101351.69;4478563;31;35473;-82
2022/01/12 10:39:55;;;;;;;;;;;;;;;0.36;52.67;101345.84;4477246;31;34135;-82
2022/01/12 10:42:24;;;;;;;;;;;;;;;0.05;53.09;101340.75;4461549;31;34064;-83
2022/01/12 10:44:54;;;;;;;;;;;;;;;0.40;52.54;101335.91;4475998;31;32218;-83
2022/01/12 10:47:24;;;;;;;;;;;;;;;0.37;52.20;101338.28;4475666;31;35066;-83
2022/01/12 10:50:03;;;;;;;;;;;;;;;0.62;51.65;101337.06;4481485;31;34861;-83
2022/01/12 10:52:34;;;;;;;;;;;;;;;0.44;51.64;101341.19;4481205;31;33782;-83
2022/01/12 10:55:03;;;;;;;;;;;;;;;0.75;51.07;101329.25;4478053;31;34549;-83
2022/01/12 10:57:33;;;;;;;;;;;;;;;0.82;51.02;101330.44;4478178;31;34379;-83
2022/01/12 11:00:18;;;;;;;;;;;;;;;0.83;49.96;101335.63;4463622;31;34998;-83
2022/01/12 11:02:48;;;;;;;;;;;;;;;0.47;50.33;101337.12;4473948;31;33815;-83
2022/01/12 11:05:17;;;;;;;;;;;;;;;0.86;48.99;101327.25;4482179;31;32827;-83
2022/01/12 11:07:45;;;;;;;;;;;;;;;0.91;49.80;101325.81;4474233;31;33895;-83
2022/01/12 11:10:14;;;;;;;;;;;;;;;0.86;49.28;101322.16;4462108;31;35167;-83
2022/01/12 11:12:45;;;;;;;;;;;;;;;0.94;48.93;101331.06;4477252;31;33606;-83
2022/01/12 11:15:16;;;;;;;;;;;;;;;0.84;48.79;101328.84;4478270;31;33215;-83
2022/01/12 11:17:45;;;;;;;;;;;;;;;0.72;49.26;101331.63;4484928;31;33155;-83
2022/01/12 11:20:16;;;;;;;;;;;;;;;0.66;49.64;101331.31;4474574;32;34670;-83
2022/01/12 11:22:55;;;;;;;;;;;;;;;1.04;49.30;101335.03;4476041;31;34501;-83
2022/01/12 11:25:24;;;;;;;;;;;;;;;1.15;48.27;101341.53;4475321;31;33070;-83
2022/01/12 11:28:03;;;;;;;;;;;;;;;1.19;49.04;101329.81;4461223;31;35334;-84
2022/01/12 11:30:36;;;;;;;;;;;;;;;1.31;49.25;101329.56;4460261;31;32308;-84
2022/01/12 11:33:05;;;;;;;;;;;;;;;1.27;49.42;101321.72;4480972;31;33424;-84
2022/01/12 11:35:36;;;;;;;;;;;;;;;1.48;48.98;101327.03;4474557;32;33468;-85
2022/01/12 11:38:05;;;;;;;;;;;;;;;1.35;48.57;101334.00;4476814;31;33396;-84
2022/01/12 11:40:39;;;;;;;;;;;;;;;1.39;48.54;101323.12;4474122;31;34045;-85
2022/01/12 11:43:21;;;;;;;;;;;;;;;1.37;48.31;101322.19;4464222;31;34081;-84
2022/01/12 11:46:01;;;;;;;;;;;;;;;1.65;47.83;101317.63;4476813;31;33411;-84
2022/01/12 11:48:33;;;;;;;;;;;;;;;1.35;48.73;101316.09;4482793;31;34992;-84
2022/01/12 11:51:02;;;;;;;;;;;;;;;1.38;48.48;101311.16;4491483;31;33546;-85
2022/01/12 11:53:31;;;;;;;;;;;;;;;1.50;49.05;101314.34;4461111;31;34980;-84
2022/01/12 11:56:10;;;;;;;;;;;;;;;1.24;50.04;101310.47;4484645;31;33214;-84
2022/01/12 11:58:49;;;;;;;;;;;;;;;1.68;49.40;101309.22;4477039;31;34070;-84
2022/01/12 12:01:19;;;;;;;;;;;;;;;1.47;49.69;101303.94;4479056;31;33728;-85
2022/01/12 12:03:58;;;;;;;;;;;;;;;1.37;49.95;101309.41;4484553;31;33015;-84
2022/01/12 12:06:26;;;;;;;;;;;;;;;1.50;50.10;101299.00;4481110;31;32764;-85
2022/01/12 12:08:56;;;;;;;;;;;;;;;1.42;50.02;101311.37;4475307;32;34612;-85
2022/01/12 12:11:25;;;;;;;;;;;;;;;1.21;50.61;101300.97;4474900;31;33878;-84
2022/01/12 12:13:54;;;;;;;;;;;;;;;1.38;50.07;101308.59;4474847;31;33598;-84
2022/01/12 12:16:24;;;;;;;;;;;;;;;1.69;49.13;101301.63;4475497;31;33455;-84
2022/01/12 12:18:53;;;;;;;;;;;;;;;1.46;49.60;101300.50;4486640;31;34748;-85
2022/01/12 12:21:21;;;;;;;;;;;;;;;1.39;50.32;101300.12;4472830;32;34551;-84
2022/01/12 12:23:50;;;;;;;;;;;;;;;1.32;49.93;101305.72;4464187;31;34013;-84
2022/01/12 12:26:19;;;;;;;;;;;;;;;1.22;50.06;101301.84;4463292;32;35127;-85
2022/01/12 12:28:54;;;;;;;;;;;;;;;1.10;50.11;101299.53;4465196;32;34782;-85
2022/01/12 12:31:25;;;;;;;;;;;;;;;1.18;50.37;101299.91;4495827;31;33798;-85
2022/01/12 12:34:15;;;;;;;;;;;;;;;1.06;50.60;101302.72;4496775;31;33483;-84
2022/01/12 12:36:43;;;;;;;;;;;;;;;1.56;48.58;101308.63;4488976;31;33570;-84
2022/01/12 12:39:15;;;;;;;;;;;;;;;1.53;48.79;101311.03;4469820;32;34376;-84
2022/01/12 12:41:45;;;;;;;;;;;;;;;1.45;49.00;101310.63;4464600;32;32936;-85
2022/01/12 12:44:20;;;;;;;;;;;;;;;1.56;49.06;101319.72;4478241;31;33812;-84
2022/01/12 12:46:52;;;;;;;;;;;;;;;1.42;48.94;101315.59;4481929;32;32987;-85
2022/01/12 12:49:20;;;;;;;;;;;;;;;1.42;49.25;101308.81;4489007;31;33952;-84
2022/01/12 12:51:48;;;;;;;;;;;;;;;1.32;49.38;101308.28;4475699;32;36407;-85
2022/01/12 12:54:17;;;;;;;;;;;;;;;1.46;49.05;101300.50;4477449;31;34746;-84
2022/01/12 12:57:08;;;;;;;;;;;;;;;1.33;48.90;101307.47;4477424;31;32751;-84
2022/01/12 12:59:37;;;;;;;;;;;;;;;1.60;48.27;101306.31;4489519;31;33810;-85
2022/01/12 13:02:14;;;;;;;;;;;;;;;1.49;48.49;101297.22;4485614;31;34195;-85
2022/01/12 13:04:42;;;;;;;;;;;;;;;1.66;47.27;101300.59;4482997;31;34048;-84
2022/01/12 13:07:12;;;;;;;;;;;;;;;1.48;48.22;101298.03;4485758;31;33269;-84
2022/01/12 13:09:41;;;;;;;;;;;;;;;1.44;47.96;101296.12;4485423;31;34479;-84
2022/01/12 13:12:09;;;;;;;;;;;;;;;1.43;48.62;101299.47;4481548;31;33955;-85
2022/01/12 13:14:42;;;;;;;;;;;;;;;1.51;48.27;101298.16;4475367;31;33554;-85
2022/01/12 13:17:12;;;;;;;;;;;;;;;1.56;47.99;101300.97;4483539;31;32570;-85
2022/01/12 13:22:28;;;;;;;;;;;;;;;1.42;47.30;101310.50;4476965;31;33966;-84
2022/01/12 13:24:57;;;;;;;;;;;;;;;1.40;47.72;101287.44;4476987;31;33540;-84
2022/01/12 13:27:26;;;;;;;;;;;;;;;1.26;48.41;101298.66;4478943;31;33708;-84
2022/01/12 13:29:54;;;;;;;;;;;;;;;1.74;47.79;101303.53;4487245;31;34744;-85
2022/01/12 13:32:24;;;;;;;;;;;;;;;1.86;47.61;101309.22;4470829;32;32259;-85
2022/01/12 13:34:56;;;;;;;;;;;;;;;1.64;47.91;101304.75;4478514;31;34099;-84
2022/01/12 13:37:25;;;;;;;;;;;;;;;1.47;48.23;101309.94;4483348;31;33205;-84
2022/01/12 13:40:04;;;;;;;;;;;;;;;1.47;48.33;101307.38;4482144;31;34115;-85
2022/01/12 13:42:33;;;;;;;;;;;;;;;1.22;49.19;101307.81;4481583;31;34766;-84
2022/01/12 13:45:05;;;;;;;;;;;;;;;1.26;48.98;101311.44;4473869;31;35204;-84
2022/01/12 13:47:37;;;;;;;;;;;;;;;1.22;48.43;101307.81;4483198;32;32804;-84
2022/01/12 13:50:06;;;;;;;;;;;;;;;1.17;48.58;101308.41;4480926;31;32972;-84
2022/01/12 13:52:37;;;;;;;;;;;;;;;1.26;47.32;101302.06;4467007;31;34905;-85
2022/01/12 13:55:09;;;;;;;;;;;;;;;1.42;47.23;101306.25;4485202;31;33195;-84
2022/01/12 13:57:40;;;;;;;;;;;;;;;1.45;46.31;101298.75;4487450;31;32973;-84
2022/01/12 14:00:10;;;;;;;;;;;;;;;1.17;47.29;101301.59;4487538;31;34489;-84
2022/01/12 14:02:47;;;;;;;;;;;;;;;1.23;47.26;101304.47;4475931;32;33940;-84
2022/01/12 14:05:19;;;;;;;;;;;;;;;0.98;48.41;101311.69;4477320;31;33066;-84
2022/01/12 14:07:59;;;;;;;;;;;;;;;0.98;48.49;101301.47;4484158;31;33142;-85
2022/01/12 14:10:33;;;;;;;;;;;;;;;1.07;47.97;101307.06;4476671;32;33690;-84